Time;durP1;ratioP1;P1;durP2;ratioP2;P2;SDS_P1;SDS_P2;PMS_P1;PMS_P2;Temp;Humidity;BMP_temperature;BMP_pressure;BME280_temperature;BME280_humidity;BME280_pressure;Samples;Min_cycle;Max_cycle;Signal;HPM_P1;HPM_P2
2023/03/05 00:01:24;;;;;;;12.60;4.60;;;9.90;99.90;;;;;;5019392;28;20278;-69
2023/03/05 00:03:53;;;;;;;9.83;4.50;;;10.00;99.90;;;;;;5003655;28;20219;-70
2023/03/05 00:06:26;;;;;;;11.53;4.70;;;9.80;99.90;;;;;;5002842;28;20180;-70
2023/03/05 00:08:55;;;;;;;15.50;4.90;;;9.80;99.90;;;;;;5019805;28;20848;-70
2023/03/05 00:11:24;;;;;;;9.80;4.40;;;9.70;99.90;;;;;;5019786;28;20191;-70
2023/03/05 00:13:55;;;;;;;12.50;4.47;;;9.70;99.90;;;;;;5002024;28;20196;-70
2023/03/05 00:16:25;;;;;;;7.53;4.07;;;9.70;99.90;;;;;;5019853;28;20196;-70
2023/03/05 00:18:53;;;;;;;11.40;4.33;;;9.70;99.90;;;;;;4987220;28;20250;-69
2023/03/05 00:21:33;;;;;;;9.83;4.27;;;9.80;99.90;;;;;;4999555;28;20203;-69
2023/03/05 00:24:02;;;;;;;8.30;4.17;;;9.70;99.90;;;;;;5001837;28;20751;-69
2023/03/05 00:26:30;;;;;;;16.63;4.20;;;9.60;99.90;;;;;;5002270;28;20547;-70
2023/03/05 00:28:57;;;;;;;13.23;5.10;;;9.60;99.90;;;;;;5019543;28;20196;-70
2023/03/05 00:31:33;;;;;;;11.67;4.17;;;9.60;99.90;;;;;;4997315;28;20184;-70
2023/03/05 00:34:08;;;;;;;15.00;3.93;;;9.50;99.90;;;;;;5017863;28;20192;-70
2023/03/05 00:36:39;;;;;;;7.93;3.60;;;9.50;99.90;;;;;;5015093;28;20282;-70
2023/03/05 00:39:05;;;;;;;10.40;3.50;;;9.40;99.90;;;;;;5019170;28;20689;-69
2023/03/05 00:41:32;;;;;;;7.47;3.43;;;9.50;99.90;;;;;;5018729;28;20287;-69
2023/03/05 00:43:58;;;;;;;7.67;3.30;;;9.50;99.90;;;;;;5016235;28;20208;-70
2023/03/05 00:46:26;;;;;;;12.87;3.10;;;9.30;99.90;;;;;;5015938;28;20188;-70
2023/03/05 00:48:54;;;;;;;6.43;2.80;;;9.30;99.90;;;;;;5017829;28;20189;-70
2023/03/05 00:51:20;;;;;;;6.33;2.53;;;9.20;99.90;;;;;;5016745;28;20196;-70
2023/03/05 00:53:47;;;;;;;6.70;2.43;;;9.20;99.90;;;;;;5018260;28;20718;-70
2023/03/05 00:56:13;;;;;;;6.43;2.60;;;9.10;99.90;;;;;;5019844;28;20188;-70
2023/03/05 00:58:40;;;;;;;4.77;2.70;;;9.10;99.90;;;;;;4983103;28;20291;-70
2023/03/05 01:01:06;;;;;;;6.73;2.50;;;9.20;99.90;;;;;;5000677;28;20220;-70
2023/03/05 01:03:34;;;;;;;5.57;2.43;;;9.10;99.90;;;;;;4998560;28;20277;-70
2023/03/05 01:06:06;;;;;;;4.70;2.10;;;9.10;99.90;;;;;;5000958;28;20563;-70
2023/03/05 01:08:33;;;;;;;6.27;2.00;;;9.10;99.90;;;;;;5015742;28;20223;-69
2023/03/05 01:11:00;;;;;;;10.80;3.00;;;9.00;99.90;;;;;;5018813;28;20615;-70
2023/03/05 01:13:26;;;;;;;11.63;2.80;;;9.00;99.90;;;;;;5017085;28;20188;-70
2023/03/05 01:15:52;;;;;;;6.83;2.70;;;9.00;99.90;;;;;;5016228;28;22109;-69
2023/03/05 01:18:19;;;;;;;7.20;2.23;;;8.90;99.90;;;;;;5018961;28;20216;-69
2023/03/05 01:20:47;;;;;;;6.30;2.07;;;9.00;99.90;;;;;;4983458;28;20690;-70
2023/03/05 01:23:13;;;;;;;6.57;2.20;;;9.00;99.90;;;;;;4999760;28;20187;-70
2023/03/05 01:25:40;;;;;;;3.77;2.03;;;8.90;99.90;;;;;;4998742;28;20207;-70
2023/03/05 01:28:07;;;;;;;9.20;2.30;;;8.90;99.90;;;;;;5019439;28;20220;-70
2023/03/05 01:30:33;;;;;;;4.13;1.93;;;8.90;99.90;;;;;;5019639;28;20192;-70
2023/03/05 01:33:03;;;;;;;7.73;2.07;;;8.90;99.90;;;;;;4997540;28;20234;-70
2023/03/05 01:35:29;;;;;;;5.23;1.73;;;8.90;99.90;;;;;;5015943;28;20578;-70
2023/03/05 01:37:55;;;;;;;4.53;1.87;;;8.90;99.90;;;;;;5019957;28;20191;-70
2023/03/05 01:40:27;;;;;;;5.10;1.90;;;8.90;99.90;;;;;;5022069;28;20223;-70
2023/03/05 01:43:22;;;;;;;5.57;1.87;;;8.90;99.90;;;;;;5019415;28;20192;-69
2023/03/05 01:46:25;;;;;;;5.97;1.97;;;9.00;99.90;;;;;;5000748;28;20265;-69
2023/03/05 01:49:05;;;;;;;7.13;1.50;;;9.00;99.90;;;;;;5019166;28;20275;-69
2023/03/05 01:51:40;;;;;;;3.27;1.50;;;9.00;99.90;;;;;;5018913;28;20191;-69
2023/03/05 01:54:12;;;;;;;5.07;1.50;;;9.00;99.90;;;;;;5021370;28;20206;-69
2023/03/05 01:56:40;;;;;;;2.20;1.30;;;9.10;99.90;;;;;;5020311;28;20531;-70
2023/03/05 01:59:07;;;;;;;3.33;1.40;;;9.10;99.90;;;;;;5020821;28;20188;-70
2023/03/05 02:01:42;;;;;;;3.90;1.70;;;9.10;99.90;;;;;;5016974;28;20201;-70
2023/03/05 02:04:15;;;;;;;3.07;1.43;;;9.10;99.90;;;;;;5022027;28;20239;-70
2023/03/05 02:06:47;;;;;;;4.80;1.70;;;9.00;99.90;;;;;;5002853;28;20181;-70
2023/03/05 02:09:14;;;;;;;4.13;1.90;;;8.90;99.90;;;;;;5004197;28;20267;-69
2023/03/05 02:11:41;;;;;;;3.03;1.93;;;9.00;99.90;;;;;;5020998;28;20275;-70
2023/03/05 02:14:08;;;;;;;3.73;1.60;;;9.10;99.90;;;;;;5022344;28;20335;-70
2023/03/05 02:16:37;;;;;;;4.87;1.60;;;9.20;99.90;;;;;;5018967;28;20188;-71
2023/03/05 02:19:08;;;;;;;4.67;1.47;;;9.30;99.90;;;;;;4999370;28;20315;-71
2023/03/05 02:21:46;;;;;;;2.80;1.50;;;9.30;99.90;;;;;;4983812;28;20188;-70
2023/03/05 02:24:16;;;;;;;6.63;1.80;;;9.40;99.90;;;;;;5004940;28;20215;-70
2023/03/05 02:26:44;;;;;;;4.90;1.67;;;9.40;99.90;;;;;;5002116;28;20262;-70
2023/03/05 02:29:18;;;;;;;3.50;1.57;;;9.40;99.90;;;;;;5022704;28;20259;-70
2023/03/05 02:31:45;;;;;;;2.57;1.37;;;9.40;99.90;;;;;;5019285;28;20184;-71
2023/03/05 02:34:11;;;;;;;4.00;1.43;;;9.50;99.90;;;;;;5023586;28;20195;-70
2023/03/05 02:36:38;;;;;;;3.67;1.53;;;9.60;99.90;;;;;;5004029;28;20192;-70
2023/03/05 02:39:04;;;;;;;3.40;1.50;;;9.60;99.90;;;;;;5004420;28;20796;-71
2023/03/05 02:41:30;;;;;;;4.63;1.70;;;9.70;99.90;;;;;;4987684;28;20184;-70
2023/03/05 02:43:57;;;;;;;2.50;1.17;;;9.70;99.90;;;;;;5020761;28;20180;-71
2023/03/05 02:46:23;;;;;;;5.27;1.60;;;9.60;99.90;;;;;;5000897;28;20193;-71
2023/03/05 02:48:49;;;;;;;3.90;1.47;;;9.60;99.90;;;;;;5017081;28;20275;-70
2023/03/05 02:51:16;;;;;;;4.30;1.20;;;9.40;99.90;;;;;;5000159;28;20222;-71
2023/03/05 02:53:42;;;;;;;2.60;1.50;;;9.40;99.90;;;;;;5001729;28;20814;-70
2023/03/05 02:56:08;;;;;;;3.93;1.50;;;9.40;99.90;;;;;;5017507;28;20188;-71
2023/03/05 02:58:34;;;;;;;4.60;1.43;;;9.40;99.90;;;;;;5020078;28;20710;-70
2023/03/05 03:01:01;;;;;;;3.97;1.53;;;9.40;99.90;;;;;;4999897;28;20246;-71
2023/03/05 03:03:27;;;;;;;2.70;1.13;;;9.40;99.90;;;;;;5020225;28;20495;-70
2023/03/05 03:05:53;;;;;;;6.77;1.43;;;9.30;99.90;;;;;;5018533;28;20234;-71
2023/03/05 03:08:19;;;;;;;3.27;1.23;;;9.20;99.90;;;;;;5019559;28;20613;-71
2023/03/05 03:10:48;;;;;;;4.90;1.60;;;9.10;99.90;;;;;;5018142;28;20586;-71
2023/03/05 03:13:15;;;;;;;2.20;1.37;;;9.10;99.90;;;;;;5019494;28;20198;-71
2023/03/05 03:15:41;;;;;;;2.33;1.30;;;9.10;99.90;;;;;;4986012;28;20184;-70
2023/03/05 03:18:07;;;;;;;5.20;1.40;;;9.00;99.90;;;;;;5018053;28;20563;-71
2023/03/05 03:20:37;;;;;;;9.37;2.60;;;9.00;99.90;;;;;;5019272;28;20215;-70
2023/03/05 03:23:05;;;;;;;3.43;1.47;;;9.00;99.90;;;;;;5000938;28;20187;-71
2023/03/05 03:25:32;;;;;;;3.20;1.10;;;9.00;99.90;;;;;;5001230;28;20224;-70
2023/03/05 03:27:58;;;;;;;2.67;1.50;;;9.10;99.90;;;;;;5017584;28;20250;-70
2023/03/05 03:30:25;;;;;;;5.73;1.73;;;9.10;99.90;;;;;;5019556;28;20275;-71
2023/03/05 03:32:51;;;;;;;5.13;1.63;;;9.10;99.90;;;;;;5000377;28;20184;-70
2023/03/05 03:35:18;;;;;;;4.30;1.27;;;9.00;99.90;;;;;;5017530;28;21217;-70
2023/03/05 03:37:44;;;;;;;3.63;1.57;;;9.00;99.90;;;;;;4985270;28;20937;-70
2023/03/05 03:40:11;;;;;;;5.30;1.57;;;8.90;99.90;;;;;;4984621;28;20188;-70
2023/03/05 03:42:37;;;;;;;6.10;1.70;;;8.90;99.90;;;;;;5002588;28;20279;-72
2023/03/05 03:45:04;;;;;;;2.70;1.37;;;8.90;99.90;;;;;;5019162;28;20219;-70
2023/03/05 03:47:31;;;;;;;2.70;1.60;;;8.90;99.90;;;;;;4999791;28;20184;-70
2023/03/05 03:49:57;;;;;;;2.93;1.87;;;8.90;99.90;;;;;;5016593;28;20896;-70
2023/03/05 03:52:25;;;;;;;4.87;1.57;;;8.90;99.90;;;;;;5019167;28;20250;-71
2023/03/05 03:54:51;;;;;;;3.50;1.60;;;8.80;99.90;;;;;;5019217;28;20203;-71
2023/03/05 03:57:18;;;;;;;3.70;1.80;;;8.80;99.90;;;;;;5001070;28;20218;-70
2023/03/05 03:59:44;;;;;;;3.93;1.77;;;8.80;99.90;;;;;;5017735;28;20837;-70
2023/03/05 04:02:11;;;;;;;5.43;1.87;;;8.80;99.90;;;;;;5015815;28;20204;-70
2023/03/05 04:04:38;;;;;;;4.60;1.70;;;8.80;99.90;;;;;;4999831;28;20298;-70
2023/03/05 04:07:06;;;;;;;5.47;2.10;;;8.70;99.90;;;;;;4982014;28;20684;-70
2023/03/05 04:09:32;;;;;;;5.63;2.00;;;8.70;99.90;;;;;;5016039;28;20183;-70
2023/03/05 04:11:59;;;;;;;7.43;2.33;;;8.80;99.90;;;;;;5018275;28;20287;-71
2023/03/05 04:14:26;;;;;;;4.93;2.13;;;8.70;99.90;;;;;;4986519;28;20282;-70
2023/03/05 04:16:52;;;;;;;6.30;1.93;;;8.70;99.90;;;;;;5002820;28;20737;-70
2023/03/05 04:19:19;;;;;;;6.87;1.50;;;8.60;99.90;;;;;;5018052;28;20192;-70
2023/03/05 04:21:45;;;;;;;3.50;1.57;;;8.60;99.90;;;;;;5018692;28;20274;-71
2023/03/05 04:24:11;;;;;;;5.10;1.93;;;8.60;99.90;;;;;;5001121;28;20205;-70
2023/03/05 04:26:37;;;;;;;7.17;2.40;;;8.60;99.90;;;;;;5015742;28;20190;-70
2023/03/05 04:29:03;;;;;;;6.13;1.80;;;8.70;99.90;;;;;;5017356;28;20734;-71
2023/03/05 04:31:29;;;;;;;6.37;1.90;;;8.70;99.90;;;;;;5017698;28;20184;-71
2023/03/05 04:33:56;;;;;;;3.77;1.70;;;8.70;99.90;;;;;;5016794;28;20235;-71
2023/03/05 04:36:22;;;;;;;4.93;2.00;;;8.80;99.90;;;;;;5019484;28;20192;-70
2023/03/05 04:38:48;;;;;;;4.73;1.80;;;8.70;99.90;;;;;;4998572;28;20184;-70
2023/03/05 04:41:14;;;;;;;4.20;1.50;;;8.60;99.90;;;;;;5016942;28;22127;-71
2023/03/05 04:43:40;;;;;;;4.37;1.70;;;8.70;99.90;;;;;;5018077;28;20184;-70
2023/03/05 04:46:07;;;;;;;3.40;1.30;;;8.70;99.90;;;;;;5018498;28;20216;-71
2023/03/05 04:48:33;;;;;;;3.63;1.50;;;8.60;99.90;;;;;;5000366;28;20192;-71
2023/03/05 04:51:00;;;;;;;1.90;1.10;;;8.50;99.90;;;;;;5016896;28;20176;-71
2023/03/05 04:53:26;;;;;;;3.80;1.37;;;8.50;99.90;;;;;;5013929;28;20199;-70
2023/03/05 04:55:56;;;;;;;2.77;1.00;;;8.60;99.90;;;;;;5017116;28;20196;-70
2023/03/05 04:58:23;;;;;;;4.93;1.47;;;8.60;99.90;;;;;;5017411;28;20282;-71
2023/03/05 05:00:49;;;;;;;3.30;1.20;;;8.70;99.90;;;;;;5015854;28;20279;-70
2023/03/05 05:03:16;;;;;;;2.50;1.10;;;8.70;99.90;;;;;;5018101;28;20242;-70
2023/03/05 05:05:42;;;;;;;2.03;0.90;;;8.80;99.90;;;;;;5019434;28;20207;-70
2023/03/05 05:08:09;;;;;;;2.03;0.97;;;8.80;99.90;;;;;;5016426;28;24214;-70
2023/03/05 05:10:38;;;;;;;3.20;1.40;;;8.90;99.90;;;;;;5015863;28;20184;-70
2023/03/05 05:13:07;;;;;;;4.77;1.07;;;8.90;99.90;;;;;;4999426;28;20740;-70
2023/03/05 05:15:34;;;;;;;3.00;1.10;;;8.90;99.90;;;;;;5017452;28;20281;-70
2023/03/05 05:18:00;;;;;;;2.33;1.13;;;9.00;99.90;;;;;;4997826;28;20205;-71
2023/03/05 05:20:26;;;;;;;1.97;0.90;;;9.00;99.90;;;;;;5015874;28;20187;-71
2023/03/05 05:22:53;;;;;;;3.13;1.10;;;9.00;99.90;;;;;;4982618;28;20188;-70
2023/03/05 05:25:19;;;;;;;3.10;0.90;;;9.00;99.90;;;;;;4999759;28;20261;-71
2023/03/05 05:27:46;;;;;;;2.47;1.00;;;9.10;99.90;;;;;;4995292;28;20200;-71
2023/03/05 05:30:12;;;;;;;1.30;0.70;;;9.20;99.90;;;;;;5017732;28;20184;-70
2023/03/05 05:32:38;;;;;;;2.80;1.00;;;9.30;99.90;;;;;;5017965;28;20241;-71
2023/03/05 05:35:06;;;;;;;3.87;1.00;;;9.40;99.90;;;;;;4998260;28;20908;-70
2023/03/05 05:37:32;;;;;;;1.53;0.80;;;9.50;99.90;;;;;;5017605;28;20188;-71
2023/03/05 05:39:58;;;;;;;2.27;0.97;;;9.60;99.90;;;;;;5016865;28;20671;-71
2023/03/05 05:42:25;;;;;;;1.20;0.80;;;9.70;99.90;;;;;;5014522;28;20676;-70
2023/03/05 05:44:52;;;;;;;2.63;0.93;;;9.80;99.90;;;;;;5017452;28;20208;-71
2023/03/05 05:47:18;;;;;;;1.47;0.70;;;9.90;99.90;;;;;;5017572;28;20185;-70
2023/03/05 05:49:45;;;;;;;2.13;0.80;;;10.00;99.90;;;;;;5001918;28;20212;-70
2023/03/05 05:52:12;;;;;;;1.27;0.83;;;10.10;99.90;;;;;;5016606;28;20192;-70
2023/03/05 05:54:39;;;;;;;1.57;0.90;;;10.20;99.90;;;;;;5018502;28;20196;-71
2023/03/05 05:57:06;;;;;;;3.03;1.00;;;10.30;99.90;;;;;;4999038;28;20402;-70
2023/03/05 05:59:33;;;;;;;1.97;1.00;;;10.30;99.90;;;;;;4998327;28;20215;-71
2023/03/05 06:01:59;;;;;;;3.93;1.00;;;10.40;99.90;;;;;;5015612;28;20639;-71
2023/03/05 06:04:25;;;;;;;2.50;1.07;;;10.50;99.90;;;;;;4997599;28;20809;-71
2023/03/05 06:06:51;;;;;;;2.90;1.43;;;10.60;99.90;;;;;;5015150;28;20218;-70
2023/03/05 06:09:18;;;;;;;3.33;1.20;;;10.80;99.90;;;;;;5000836;28;20200;-71
2023/03/05 06:11:44;;;;;;;4.63;1.60;;;10.80;99.90;;;;;;5018088;28;20242;-71
2023/03/05 06:14:13;;;;;;;2.27;1.17;;;10.90;99.90;;;;;;4999476;28;20205;-70
2023/03/05 06:19:31;;;;;;;3.77;1.30;;;11.00;99.90;;;;;;5013016;28;20196;-71
2023/03/05 06:21:57;;;;;;;3.00;1.20;;;11.10;99.90;;;;;;5016203;28;20235;-71
2023/03/05 06:24:23;;;;;;;2.90;1.17;;;11.10;99.90;;;;;;5022276;28;20297;-71
2023/03/05 06:26:49;;;;;;;2.70;1.37;;;11.10;99.90;;;;;;5022374;28;20274;-71
2023/03/05 06:29:16;;;;;;;1.90;1.10;;;11.20;99.90;;;;;;5021136;28;20184;-70
2023/03/05 06:31:42;;;;;;;3.53;1.30;;;11.20;99.90;;;;;;5021510;28;20212;-71
2023/03/05 06:34:11;;;;;;;4.17;1.27;;;11.30;99.90;;;;;;5022014;28;20196;-71
2023/03/05 06:36:39;;;;;;;2.73;1.30;;;11.40;99.90;;;;;;5003179;28;20558;-70
2023/03/05 06:39:06;;;;;;;2.00;1.17;;;11.50;99.90;;;;;;5019359;28;20274;-70
2023/03/05 06:41:32;;;;;;;4.63;1.30;;;11.50;99.90;;;;;;5002459;28;20196;-71
2023/03/05 06:44:03;;;;;;;4.10;1.13;;;11.60;99.90;;;;;;5021935;28;20294;-70
2023/03/05 06:46:34;;;;;;;3.03;1.23;;;11.70;99.90;;;;;;5022194;28;20247;-70
2023/03/05 06:49:02;;;;;;;4.20;1.43;;;11.70;99.90;;;;;;5020465;28;20188;-70
2023/03/05 06:51:37;;;;;;;2.33;0.97;;;11.80;99.90;;;;;;5003325;28;20191;-71
2023/03/05 06:54:11;;;;;;;2.97;1.40;;;11.80;99.90;;;;;;5019478;28;20211;-70
2023/03/05 06:56:40;;;;;;;3.97;1.73;;;11.90;99.90;;;;;;5020692;28;20195;-70
2023/03/05 06:59:07;;;;;;;4.37;1.40;;;11.90;99.90;;;;;;5019720;28;20207;-71
2023/03/05 07:01:34;;;;;;;4.77;1.60;;;12.00;99.90;;;;;;5019079;28;20219;-71
2023/03/05 07:04:01;;;;;;;7.47;2.60;;;12.00;99.90;;;;;;5019432;28;20195;-70
2023/03/05 07:06:32;;;;;;;11.30;2.67;;;12.10;99.90;;;;;;5017071;28;20185;-71
2023/03/05 07:09:01;;;;;;;6.37;3.10;;;12.00;99.90;;;;;;5018321;28;20204;-71
2023/03/05 07:11:28;;;;;;;11.00;3.03;;;11.90;99.90;;;;;;5021329;28;20283;-71
2023/03/05 07:13:54;;;;;;;7.43;3.10;;;11.80;99.90;;;;;;5000180;28;20181;-71
2023/03/05 07:16:26;;;;;;;10.07;3.20;;;11.70;99.90;;;;;;5018965;28;20288;-70
2023/03/05 07:18:53;;;;;;;5.97;2.70;;;11.60;99.90;;;;;;5020872;28;20563;-70
2023/03/05 07:21:26;;;;;;;6.53;2.77;;;11.50;99.90;;;;;;5000133;28;20567;-71
2023/03/05 07:23:57;;;;;;;6.37;2.60;;;11.60;99.90;;;;;;5019513;28;20184;-71
2023/03/05 07:26:25;;;;;;;5.70;2.27;;;11.60;99.90;;;;;;5020667;28;20207;-70
2023/03/05 07:28:52;;;;;;;9.70;2.90;;;11.60;99.90;;;;;;5019086;28;20795;-70
2023/03/05 07:31:25;;;;;;;8.13;3.13;;;11.60;99.90;;;;;;5002585;28;21010;-70
2023/03/05 07:33:53;;;;;;;11.90;3.47;;;11.80;99.90;;;;;;5017966;28;20188;-71
2023/03/05 07:36:19;;;;;;;9.80;3.23;;;11.80;99.90;;;;;;5017901;28;20607;-70
2023/03/05 07:38:45;;;;;;;11.73;3.93;;;11.90;99.90;;;;;;5000599;28;20284;-70
2023/03/05 07:41:22;;;;;;;8.07;3.13;;;11.90;99.90;;;;;;5018996;28;20276;-70
2023/03/05 07:43:51;;;;;;;9.60;3.83;;;12.00;99.90;;;;;;5017622;28;20208;-71
2023/03/05 07:46:22;;;;;;;12.20;3.60;;;12.00;99.90;;;;;;5018455;28;20293;-71
2023/03/05 07:48:49;;;;;;;9.87;3.80;;;12.10;99.90;;;;;;5019538;28;20220;-71
2023/03/05 07:51:18;;;;;;;8.00;3.40;;;12.10;99.90;;;;;;5020800;28;20199;-70
2023/03/05 07:53:47;;;;;;;8.33;4.27;;;12.20;99.90;;;;;;5001642;28;20185;-71
2023/03/05 07:56:31;;;;;;;7.90;3.77;;;12.20;99.90;;;;;;5019016;28;20203;-71
2023/03/05 07:58:59;;;;;;;9.33;3.77;;;12.30;99.90;;;;;;5019763;28;20188;-70
2023/03/05 08:01:25;;;;;;;12.30;4.27;;;12.30;99.90;;;;;;5019959;28;20176;-70
2023/03/05 08:03:51;;;;;;;18.13;3.87;;;12.40;99.90;;;;;;5021039;28;20192;-70
2023/03/05 08:06:17;;;;;;;13.10;4.47;;;12.40;99.90;;;;;;5020129;28;20188;-70
2023/03/05 08:08:44;;;;;;;10.03;4.20;;;12.50;99.90;;;;;;5000195;28;20183;-70
2023/03/05 08:11:13;;;;;;;8.63;4.00;;;12.50;99.90;;;;;;5019040;28;20188;-71
2023/03/05 08:13:41;;;;;;;9.87;3.87;;;12.60;99.90;;;;;;5018125;28;20192;-71
2023/03/05 08:16:12;;;;;;;12.53;4.30;;;12.60;99.90;;;;;;4982376;28;20184;-70
2023/03/05 08:18:38;;;;;;;12.63;4.07;;;12.70;99.90;;;;;;4999189;28;20337;-70
2023/03/05 08:21:05;;;;;;;9.23;4.13;;;12.80;99.90;;;;;;5000539;28;20215;-70
2023/03/05 08:23:33;;;;;;;14.93;4.23;;;12.90;99.90;;;;;;5018155;28;20185;-70
2023/03/05 08:25:59;;;;;;;10.50;4.27;;;13.00;99.90;;;;;;5018603;28;20943;-70
2023/03/05 08:28:25;;;;;;;12.77;4.70;;;13.10;99.90;;;;;;5017687;28;20200;-70
2023/03/05 08:30:52;;;;;;;11.60;4.60;;;13.30;99.90;;;;;;4997690;28;20212;-71
2023/03/05 08:33:18;;;;;;;18.17;4.83;;;13.50;99.90;;;;;;5015964;28;20238;-70
2023/03/05 08:35:45;;;;;;;16.40;4.60;;;13.60;99.90;;;;;;4981794;28;20571;-70
2023/03/05 08:38:11;;;;;;;14.10;4.50;;;13.60;99.90;;;;;;5016604;28;20195;-71
2023/03/05 08:40:37;;;;;;;12.80;4.83;;;13.70;99.90;;;;;;4999767;28;22009;-70
2023/03/05 08:43:06;;;;;;;14.47;5.07;;;13.70;99.90;;;;;;5016984;28;20319;-71
2023/03/05 08:45:32;;;;;;;13.47;4.80;;;13.70;99.90;;;;;;5016151;28;20647;-71
2023/03/05 08:47:58;;;;;;;14.17;5.00;;;13.80;99.90;;;;;;4994551;28;20184;-71
2023/03/05 08:50:24;;;;;;;11.70;5.13;;;14.00;99.90;;;;;;5018481;28;20547;-71
2023/03/05 08:52:51;;;;;;;10.50;4.53;;;14.20;99.90;;;;;;4997755;28;20180;-70
2023/03/05 08:55:20;;;;;;;12.87;4.73;;;14.10;99.90;;;;;;5015804;28;20188;-71
2023/03/05 08:57:47;;;;;;;9.20;4.07;;;14.20;99.90;;;;;;4999647;28;20223;-71
2023/03/05 09:00:13;;;;;;;10.67;4.63;;;14.20;99.90;;;;;;5018146;28;20249;-71
2023/03/05 09:02:40;;;;;;;9.17;4.07;;;14.30;99.90;;;;;;5020258;28;20819;-71
2023/03/05 09:05:07;;;;;;;11.07;4.17;;;14.30;99.90;;;;;;5015650;28;20208;-71
2023/03/05 09:07:33;;;;;;;10.97;4.60;;;14.60;99.90;;;;;;5004047;28;20199;-71
2023/03/05 09:09:59;;;;;;;11.40;4.17;;;14.70;99.90;;;;;;5002604;28;20196;-70
2023/03/05 09:12:26;;;;;;;10.17;4.47;;;14.60;99.90;;;;;;4999345;28;20200;-71
2023/03/05 09:14:54;;;;;;;9.00;4.53;;;14.60;99.90;;;;;;5017846;28;20205;-71
2023/03/05 09:17:21;;;;;;;11.03;3.83;;;14.70;99.90;;;;;;5017019;28;20573;-71
2023/03/05 09:19:48;;;;;;;17.33;4.80;;;14.70;99.90;;;;;;5018739;28;20188;-71
2023/03/05 09:22:14;;;;;;;11.60;3.93;;;14.70;99.90;;;;;;4996485;28;20250;-71
2023/03/05 09:24:42;;;;;;;14.00;4.13;;;14.80;99.90;;;;;;5017686;28;20247;-71
2023/03/05 09:27:08;;;;;;;13.43;4.20;;;14.80;99.90;;;;;;5019390;28;20231;-71
2023/03/05 09:29:34;;;;;;;9.87;3.77;;;14.80;99.90;;;;;;5014873;28;20192;-71
2023/03/05 09:32:01;;;;;;;13.40;4.67;;;14.80;99.90;;;;;;5013453;28;20205;-71
2023/03/05 09:34:27;;;;;;;9.43;3.77;;;14.90;99.90;;;;;;4982385;28;20195;-71
2023/03/05 09:36:53;;;;;;;16.03;4.87;;;14.90;99.90;;;;;;5018293;28;20195;-71
2023/03/05 09:39:19;;;;;;;6.63;3.80;;;15.00;99.90;;;;;;4998434;28;20208;-71
2023/03/05 09:42:19;;;;;;;7.73;3.73;;;15.00;99.90;;;;;;5017309;28;20189;-70
2023/03/05 09:45:16;;;;;;;11.03;4.00;;;15.10;99.90;;;;;;5002749;28;20222;-70
2023/03/05 09:48:16;;;;;;;12.83;4.43;;;15.40;99.90;;;;;;5018099;28;20189;-71
2023/03/05 09:50:49;;;;;;;7.07;3.90;;;15.70;99.90;;;;;;5018815;28;20633;-71
2023/03/05 09:53:42;;;;;;;9.37;4.03;;;15.70;99.90;;;;;;5000982;28;20184;-71
2023/03/05 09:56:19;;;;;;;9.60;4.33;;;15.80;99.90;;;;;;5017553;28;20575;-70
2023/03/05 09:58:54;;;;;;;10.67;3.67;;;16.10;99.90;;;;;;5019366;28;20732;-70
2023/03/05 10:01:33;;;;;;;10.00;4.20;;;16.40;99.90;;;;;;5019235;28;20191;-70
2023/03/05 10:04:10;;;;;;;8.07;3.83;;;16.70;99.90;;;;;;5000861;28;20196;-70
2023/03/05 10:07:15;;;;;;;10.87;4.30;;;17.10;99.90;;;;;;5019564;28;20199;-70
2023/03/05 10:09:59;;;;;;;10.17;4.40;;;17.60;99.90;;;;;;5004968;28;20223;-71
2023/03/05 10:12:55;;;;;;;10.40;4.23;;;17.60;99.90;;;;;;5020113;28;20184;-70
2023/03/05 10:16:03;;;;;;;9.27;4.43;;;17.40;99.90;;;;;;5021207;28;21128;-70
2023/03/05 10:18:54;;;;;;;10.50;4.47;;;17.40;99.90;;;;;;5021591;28;20683;-70
2023/03/05 10:21:33;;;;;;;12.33;4.93;;;17.50;99.90;;;;;;5020560;28;20204;-74
2023/03/05 10:24:45;;;;;;;15.67;4.57;;;17.50;99.90;;;;;;5000268;28;20703;-73
2023/03/05 10:27:45;;;;;;;9.43;4.17;;;17.50;99.90;;;;;;5020587;28;20219;-74
2023/03/05 10:31:07;;;;;;;9.57;4.20;;;17.70;99.90;;;;;;5020052;28;20246;-73
2023/03/05 10:34:22;;;;;;;10.97;4.13;;;17.90;99.90;;;;;;5006073;28;20222;-73
2023/03/05 10:37:15;;;;;;;13.87;4.07;;;18.10;99.90;;;;;;5003321;28;20216;-73
2023/03/05 10:40:00;;;;;;;12.27;4.07;;;18.70;99.90;;;;;;5005926;28;20188;-73
2023/03/05 10:43:06;;;;;;;14.53;4.23;;;18.60;99.90;;;;;;5001647;28;20286;-74
2023/03/05 10:45:43;;;;;;;9.85;4.28;;;18.90;99.90;;;;;;5022678;28;20826;-74
2023/03/05 10:48:43;;;;;;;10.95;4.53;;;18.70;99.90;;;;;;5018769;28;20200;-73
2023/03/05 10:51:50;;;;;;;17.30;3.90;;;18.50;99.90;;;;;;5002396;28;20199;-73
2023/03/05 10:54:33;;;;;;;11.73;4.35;;;19.00;99.90;;;;;;4903209;29;20599;-73
2023/03/05 10:57:24;;;;;;;10.43;4.88;;;18.90;99.90;;;;;;5008856;28;20196;-73
2023/03/05 11:00:07;;;;;;;20.13;4.68;;;18.90;99.90;;;;;;5022423;28;20194;-73
2023/03/05 11:02:51;;;;;;;10.13;5.05;;;19.10;99.90;;;;;;5005481;28;20192;-73
2023/03/05 11:05:41;;;;;;;22.17;5.68;;;19.00;99.90;;;;;;5021696;28;20212;-74
2023/03/05 11:08:27;;;;;;;17.45;4.90;;;18.90;99.90;;;;;;5022785;28;20224;-73
2023/03/05 11:11:17;;;;;;;17.35;4.53;;;18.80;99.90;;;;;;5021508;28;20187;-73
2023/03/05 11:13:52;;;;;;;11.02;4.03;;;18.50;99.90;;;;;;5004734;28;20195;-73
2023/03/05 11:16:32;;;;;;;9.38;4.07;;;18.70;99.90;;;;;;5000445;28;20188;-73
2023/03/05 11:19:23;;;;;;;21.37;4.63;;;18.20;99.90;;;;;;5023364;28;20192;-73
2023/03/05 11:22:19;;;;;;;9.23;4.53;;;17.90;99.90;;;;;;5022911;28;20180;-73
2023/03/05 11:25:17;;;;;;;11.83;3.83;;;17.70;99.90;;;;;;5018416;28;20571;-73
2023/03/05 11:27:58;;;;;;;10.63;3.63;;;17.50;99.90;;;;;;5004821;28;20218;-73
2023/03/05 11:30:36;;;;;;;15.37;4.27;;;17.30;99.90;;;;;;5001702;28;20263;-73
2023/03/05 11:33:21;;;;;;;14.40;5.03;;;17.60;99.90;;;;;;5021511;28;20202;-73
2023/03/05 11:35:50;;;;;;;11.43;4.47;;;17.70;99.90;;;;;;5023306;28;20599;-73
2023/03/05 11:38:27;;;;;;;7.97;4.03;;;18.40;99.90;;;;;;5018865;28;20187;-73
2023/03/05 11:40:56;;;;;;;12.87;5.13;;;18.50;99.90;;;;;;5005163;28;20218;-73
2023/03/05 11:43:24;;;;;;;15.93;5.13;;;18.40;99.90;;;;;;5016674;28;20426;-73
2023/03/05 11:46:00;;;;;;;11.53;5.40;;;18.20;99.90;;;;;;5005766;28;20612;-74
2023/03/05 11:48:36;;;;;;;15.50;6.60;;;17.70;99.90;;;;;;5020745;28;20191;-74
2023/03/05 11:51:41;;;;;;;23.07;6.67;;;17.70;99.90;;;;;;5001788;28;20188;-74
2023/03/05 11:54:15;;;;;;;16.60;6.73;;;17.40;99.90;;;;;;5002960;28;20223;-73
2023/03/05 11:56:44;;;;;;;20.03;7.83;;;17.10;99.90;;;;;;5023071;28;20191;-73
2023/03/05 11:59:34;;;;;;;23.30;8.57;;;17.00;99.90;;;;;;5002491;28;20191;-73
2023/03/05 12:02:01;;;;;;;19.90;7.73;;;17.30;99.90;;;;;;5003695;28;20189;-73
2023/03/05 12:04:32;;;;;;;15.10;7.07;;;17.60;99.90;;;;;;5021325;28;20204;-73
2023/03/05 12:07:03;;;;;;;18.57;7.97;;;17.80;99.90;;;;;;5019912;28;20277;-73
2023/03/05 12:09:50;;;;;;;20.30;9.00;;;17.80;99.90;;;;;;5018922;28;20258;-73
2023/03/05 12:12:22;;;;;;;19.13;8.23;;;17.60;99.90;;;;;;5015250;28;20189;-73
2023/03/05 12:15:00;;;;;;;22.70;7.60;;;17.50;99.90;;;;;;5021142;28;20642;-73
2023/03/05 12:18:23;;;;;;;21.53;6.30;;;17.40;99.90;;;;;;5003492;28;20196;-73
2023/03/05 12:21:02;;;;;;;23.30;6.23;;;17.80;99.90;;;;;;4991499;28;20204;-73
2023/03/05 12:23:42;;;;;;;12.10;5.37;;;17.80;99.90;;;;;;5019531;28;20199;-73
2023/03/05 12:26:08;;;;;;;21.17;6.43;;;17.60;99.90;;;;;;4987407;28;20251;-73
2023/03/05 12:28:35;;;;;;;29.10;7.10;;;17.80;99.90;;;;;;5021104;28;20194;-74
2023/03/05 12:31:07;;;;;;;21.53;6.30;;;17.80;99.90;;;;;;5018663;28;20665;-73
2023/03/05 12:33:41;;;;;;;24.17;5.87;;;17.80;99.90;;;;;;5021415;28;20262;-73
2023/03/05 12:36:19;;;;;;;17.30;5.40;;;17.60;99.90;;;;;;5014700;28;20543;-73
2023/03/05 12:38:56;;;;;;;26.97;5.53;;;17.60;99.90;;;;;;5004343;28;20184;-73
2023/03/05 12:41:22;;;;;;;19.27;4.60;;;17.70;99.90;;;;;;5020979;28;20535;-73
2023/03/05 12:44:07;;;;;;;21.60;6.07;;;17.90;99.90;;;;;;5020461;28;20196;-74
2023/03/05 12:46:38;;;;;;;22.30;5.20;;;17.80;99.90;;;;;;5002318;28;20196;-73
2023/03/05 12:49:21;;;;;;;18.30;5.17;;;17.70;99.90;;;;;;5002564;28;20627;-73
2023/03/05 12:51:54;;;;;;;21.43;6.13;;;17.80;99.90;;;;;;5000766;28;20275;-73
2023/03/05 12:54:39;;;;;;;16.80;5.13;;;17.70;99.90;;;;;;5020306;28;20811;-73
2023/03/05 12:57:20;;;;;;;19.27;5.23;;;17.80;99.90;;;;;;5004695;28;20192;-74
2023/03/05 12:59:57;;;;;;;30.57;5.33;;;17.80;99.90;;;;;;5022441;28;20199;-73
2023/03/05 13:02:38;;;;;;;27.03;5.30;;;18.00;99.90;;;;;;5001241;28;20183;-74
2023/03/05 13:05:24;;;;;;;18.57;4.90;;;18.00;99.90;;;;;;5020415;28;20218;-74
2023/03/05 13:07:51;;;;;;;16.73;4.77;;;17.90;99.90;;;;;;5002861;28;20768;-74
2023/03/05 13:10:35;;;;;;;21.43;5.40;;;18.10;99.90;;;;;;5002834;28;20237;-73
2023/03/05 13:13:02;;;;;;;20.20;5.23;;;18.10;99.90;;;;;;5020565;28;20184;-74
2023/03/05 13:15:29;;;;;;;26.37;5.73;;;18.30;99.90;;;;;;5004243;28;20254;-73